Terminal Aerodrome Forecast
Issued by NWS

Current Version | Previous Version | Graphics & Text | Print | Product List | Glossary On
Versions: 1 2 3 4 5 6 7 8 9 10 11 12 13 14 15 16 17 18 19 20 21 22 23 24
000
FTUS41 KRLX 140200 AAA
TAFCKB
TAF AMD
KCKB 140229Z 1402/1424 VRB03KT P6SM SCT040
     FM140500 00000KT 6SM BR FEW040
     FM140600 00000KT 5SM BR SCT015
     FM140800 00000KT 1 1/2SM BR FEW001
     FM140900 00000KT 1/4SM FG VV001
     FM141300 00000KT 3SM BR SCT001
     FM141400 00000KT P6SM SKC
     FM142000 00000KT P6SM FEW050=

USA.gov is the U.S. government's official web portal to all federal, state and local government web resources and services.